Time;durP1;ratioP1;P1;durP2;ratioP2;P2;SDS_P1;SDS_P2;PMS_P1;PMS_P2;Temp;Humidity;BMP_temperature;BMP_pressure;BME280_temperature;BME280_humidity;BME280_pressure;Samples;Min_cycle;Max_cycle;Signal;HPM_P1;HPM_P2
2022/07/20 00:00:33;;;;;;;82.28;66.00;;;27.00;46.30;;;;;;6214279;23;20008;-66
2022/07/20 00:03:09;;;;;;;80.00;67.13;;;27.00;46.20;;;;;;6214641;23;20031;-66
2022/07/20 00:05:35;;;;;;;67.53;52.92;;;27.00;45.70;;;;;;6214776;23;20063;-67
2022/07/20 00:08:02;;;;;;;61.30;46.10;;;27.00;45.30;;;;;;6214275;23;20016;-67
2022/07/20 00:13:13;;;;;;;47.17;36.25;;;27.00;45.10;;;;;;6216015;23;20045;-66
2022/07/20 00:15:39;;;;;;;45.13;34.22;;;26.90;44.70;;;;;;6214442;23;20017;-67
2022/07/20 00:18:05;;;;;;;45.55;36.05;;;26.90;44.70;;;;;;6215046;23;20016;-66
2022/07/20 00:20:31;;;;;;;59.72;45.50;;;26.90;44.50;;;;;;6214434;23;20383;-67
2022/07/20 00:22:58;;;;;;;69.75;52.15;;;26.90;44.70;;;;;;6215049;23;20008;-66
2022/07/20 00:25:24;;;;;;;60.50;45.85;;;26.90;44.90;;;;;;6214770;23;20012;-67
2022/07/20 00:27:50;;;;;;;33.88;27.00;;;26.90;45.10;;;;;;6214898;23;20000;-66
2022/07/20 00:30:16;;;;;;;43.67;33.67;;;26.80;44.20;;;;;;6214215;23;20320;-67
2022/07/20 00:32:42;;;;;;;56.33;45.75;;;26.80;44.70;;;;;;6214697;23;20008;-67
2022/07/20 00:35:09;;;;;;;56.40;42.75;;;26.80;45.40;;;;;;6214309;23;20009;-67
2022/07/20 00:37:35;;;;;;;46.78;35.67;;;26.70;45.40;;;;;;6214641;23;20008;-67
2022/07/20 00:40:03;;;;;;;53.83;41.25;;;26.70;45.30;;;;;;6214794;23;20309;-67
2022/07/20 00:42:29;;;;;;;51.15;38.03;;;26.60;45.40;;;;;;6213547;23;20000;-67
2022/07/20 00:44:55;;;;;;;43.08;34.80;;;26.60;45.90;;;;;;6214588;23;20051;-66
2022/07/20 00:47:20;;;;;;;46.08;37.08;;;26.50;45.50;;;;;;6214731;23;20007;-67
2022/07/20 00:49:46;;;;;;;52.60;40.35;;;26.50;45.70;;;;;;6214489;23;20024;-65
2022/07/20 00:52:12;;;;;;;53.78;42.28;;;26.50;45.80;;;;;;6214266;23;20000;-67
2022/07/20 00:54:39;;;;;;;47.40;35.97;;;26.40;46.30;;;;;;6213941;23;20001;-66
2022/07/20 00:57:06;;;;;;;53.75;38.50;;;26.30;46.50;;;;;;6214573;23;20028;-67
2022/07/20 00:59:31;;;;;;;51.63;39.70;;;26.30;46.20;;;;;;6210292;23;20451;-67
2022/07/20 01:01:57;;;;;;;51.17;37.72;;;26.30;46.30;;;;;;6211115;23;20016;-67
2022/07/20 01:04:23;;;;;;;49.47;37.60;;;26.20;46.20;;;;;;6211359;23;20004;-67
2022/07/20 01:06:49;;;;;;;44.35;31.88;;;26.20;47.00;;;;;;6213730;23;20012;-67
2022/07/20 01:09:20;;;;;;;39.85;31.58;;;26.20;47.00;;;;;;6214377;23;20008;-67
2022/07/20 01:11:46;;;;;;;43.67;33.13;;;26.20;47.00;;;;;;6214254;23;20016;-67
2022/07/20 01:14:12;;;;;;;49.33;36.30;;;26.10;46.70;;;;;;6213690;23;20001;-67
2022/07/20 01:16:38;;;;;;;61.35;47.42;;;26.10;47.00;;;;;;6213288;23;20526;-67
2022/07/20 01:19:06;;;;;;;47.67;35.90;;;26.00;47.60;;;;;;6214028;23;20029;-66
2022/07/20 01:21:32;;;;;;;44.13;33.28;;;26.00;47.70;;;;;;6213790;23;20009;-67
2022/07/20 01:23:58;;;;;;;51.38;38.22;;;26.00;47.70;;;;;;6213998;23;19997;-67
2022/07/20 01:26:24;;;;;;;46.13;34.45;;;26.00;47.30;;;;;;6213904;23;20008;-67
2022/07/20 01:28:50;;;;;;;60.20;45.70;;;26.00;47.10;;;;;;6213439;23;20007;-66
2022/07/20 01:31:16;;;;;;;62.72;49.97;;;26.00;47.70;;;;;;6213837;23;20016;-67
2022/07/20 01:33:42;;;;;;;60.45;51.05;;;26.00;47.50;;;;;;6214698;23;20008;-67
2022/07/20 01:36:08;;;;;;;57.58;46.08;;;26.00;47.60;;;;;;6213226;23;20013;-67
2022/07/20 01:38:34;;;;;;;54.03;44.72;;;26.00;47.90;;;;;;6213428;23;20324;-65
2022/07/20 01:40:59;;;;;;;59.45;43.90;;;25.90;48.00;;;;;;6214388;23;20068;-67
2022/07/20 01:43:25;;;;;;;62.55;50.42;;;25.90;47.90;;;;;;6215383;23;20035;-66
2022/07/20 01:45:50;;;;;;;66.63;52.70;;;25.90;47.70;;;;;;6215764;23;20005;-67
2022/07/20 01:48:16;;;;;;;76.80;62.08;;;25.80;48.10;;;;;;6215331;23;20059;-67
2022/07/20 01:50:42;;;;;;;79.95;67.40;;;25.80;48.30;;;;;;6215391;23;20013;-67
2022/07/20 01:53:08;;;;;;;88.28;69.25;;;25.90;48.40;;;;;;6215793;23;19997;-66
2022/07/20 01:55:34;;;;;;;82.57;67.85;;;25.90;48.20;;;;;;6215475;23;20004;-66
2022/07/20 01:58:00;;;;;;;83.82;68.20;;;25.90;48.40;;;;;;6215498;23;20365;-67
2022/07/20 02:00:26;;;;;;;79.35;62.88;;;25.80;48.20;;;;;;6215888;23;20041;-67
2022/07/20 02:02:52;;;;;;;77.53;59.70;;;25.80;48.50;;;;;;6215938;23;20322;-67
2022/07/20 02:05:18;;;;;;;63.90;53.25;;;25.70;48.30;;;;;;6215765;23;20001;-67
2022/07/20 02:07:44;;;;;;;69.20;52.65;;;25.80;48.60;;;;;;6215902;23;20009;-67
2022/07/20 02:10:13;;;;;;;62.78;50.47;;;25.70;49.00;;;;;;6215503;23;20074;-66
2022/07/20 02:12:39;;;;;;;63.08;48.65;;;25.60;48.50;;;;;;6215576;23;20001;-66
2022/07/20 02:15:10;;;;;;;60.28;45.55;;;25.60;49.00;;;;;;6215274;23;20100;-67
2022/07/20 02:17:36;;;;;;;63.05;49.42;;;25.50;49.00;;;;;;6215574;23;20013;-67
2022/07/20 02:20:04;;;;;;;62.80;52.20;;;25.50;48.70;;;;;;6215903;23;20028;-67
2022/07/20 02:22:29;;;;;;;66.05;53.55;;;25.50;49.20;;;;;;6215293;23;20331;-67
2022/07/20 02:24:55;;;;;;;70.70;55.88;;;25.50;49.30;;;;;;6215451;23;20024;-67
2022/07/20 02:27:21;;;;;;;71.47;57.03;;;25.50;49.20;;;;;;6215754;23;20083;-67
2022/07/20 02:29:48;;;;;;;74.43;58.53;;;25.50;49.50;;;;;;6214957;23;20331;-67
2022/07/20 02:32:13;;;;;;;68.22;56.80;;;25.50;49.30;;;;;;6215162;23;20083;-66
2022/07/20 02:34:39;;;;;;;74.03;54.20;;;25.50;49.50;;;;;;6215158;23;20028;-67
2022/07/20 02:37:05;;;;;;;66.93;54.38;;;25.50;49.10;;;;;;6215438;23;20367;-67
2022/07/20 02:39:30;;;;;;;68.50;54.97;;;25.50;48.90;;;;;;6215055;23;20004;-66
2022/07/20 02:41:56;;;;;;;73.75;57.92;;;25.50;49.30;;;;;;6214860;23;20000;-66
2022/07/20 02:44:21;;;;;;;73.75;57.85;;;25.50;49.00;;;;;;6215427;23;20028;-67
2022/07/20 02:46:47;;;;;;;77.47;60.15;;;25.50;49.30;;;;;;6215006;23;20004;-66
2022/07/20 02:49:13;;;;;;;62.70;51.97;;;25.50;49.20;;;;;;6215070;23;20001;-67
2022/07/20 02:51:39;;;;;;;56.45;47.33;;;25.40;49.30;;;;;;6214521;23;20075;-67
2022/07/20 02:54:04;;;;;;;48.95;36.83;;;25.40;49.00;;;;;;6215441;23;20009;-67
2022/07/20 02:56:30;;;;;;;36.63;26.95;;;25.40;49.00;;;;;;6215044;23;20313;-67
2022/07/20 02:58:56;;;;;;;30.00;21.60;;;25.40;48.80;;;;;;6215057;23;20075;-67
2022/07/20 03:01:21;;;;;;;26.77;19.35;;;25.40;48.70;;;;;;6214790;23;20001;-67
2022/07/20 03:03:47;;;;;;;18.92;14.27;;;25.40;48.70;;;;;;6215083;23;20478;-67
2022/07/20 03:06:13;;;;;;;13.80;10.77;;;25.40;48.60;;;;;;6215200;23;20423;-67
2022/07/20 03:08:38;;;;;;;12.75;8.90;;;25.50;48.20;;;;;;6214663;23;20000;-67
2022/07/20 03:11:04;;;;;;;14.57;7.10;;;25.50;47.90;;;;;;6214226;23;20028;-67
2022/07/20 03:13:30;;;;;;;8.00;5.72;;;25.50;47.90;;;;;;6215612;23;20081;-66
2022/07/20 03:15:55;;;;;;;9.75;5.75;;;25.60;47.80;;;;;;6215076;23;20387;-66
2022/07/20 03:18:21;;;;;;;14.13;6.70;;;25.60;47.70;;;;;;6214977;23;20099;-66
2022/07/20 03:20:47;;;;;;;9.18;5.93;;;25.60;47.70;;;;;;6216091;23;20027;-66
2022/07/20 03:23:12;;;;;;;8.88;5.07;;;25.60;47.60;;;;;;6215092;23;19996;-67
2022/07/20 03:25:38;;;;;;;22.05;4.70;;;25.60;47.40;;;;;;6214989;23;20010;-67
2022/07/20 03:28:04;;;;;;;6.00;4.63;;;25.60;47.20;;;;;;6214443;23;19996;-67
2022/07/20 03:30:30;;;;;;;5.47;4.30;;;25.60;47.00;;;;;;6214373;23;20008;-65
2022/07/20 03:32:56;;;;;;;8.20;4.38;;;25.70;47.00;;;;;;6215892;23;20001;-67
2022/07/20 03:35:23;;;;;;;8.63;4.63;;;25.70;46.90;;;;;;6215968;23;20055;-67
2022/07/20 03:37:48;;;;;;;15.50;9.13;;;25.70;46.90;;;;;;6216273;23;20009;-67
2022/07/20 03:40:15;;;;;;;24.58;17.98;;;25.70;47.10;;;;;;6215238;23;20350;-67
2022/07/20 03:42:41;;;;;;;22.77;16.65;;;25.70;47.50;;;;;;6214524;23;20005;-67
2022/07/20 03:45:07;;;;;;;21.63;17.10;;;25.70;47.80;;;;;;6214405;23;20063;-67
2022/07/20 03:47:35;;;;;;;24.88;18.05;;;25.70;47.80;;;;;;6215155;23;20062;-66
2022/07/20 03:50:02;;;;;;;22.35;16.90;;;25.70;47.90;;;;;;6214866;23;20119;-66
2022/07/20 03:52:27;;;;;;;21.63;16.42;;;25.70;48.20;;;;;;6214777;23;20369;-67
2022/07/20 03:54:53;;;;;;;19.25;12.65;;;25.60;48.30;;;;;;6215426;23;20055;-67
2022/07/20 03:57:19;;;;;;;15.45;10.68;;;25.60;48.00;;;;;;6215267;23;20039;-67
2022/07/20 03:59:44;;;;;;;8.35;5.43;;;25.60;48.20;;;;;;6214863;23;20054;-66
2022/07/20 04:02:10;;;;;;;11.38;4.97;;;25.60;48.40;;;;;;6215460;23;20004;-66
2022/07/20 04:04:36;;;;;;;11.20;4.35;;;25.60;47.80;;;;;;6213638;23;20125;-67
2022/07/20 04:07:02;;;;;;;6.90;3.88;;;25.60;47.90;;;;;;6214248;23;20008;-67
2022/07/20 04:12:15;;;;;;;6.47;3.30;;;25.60;47.60;;;;;;6215533;23;20027;-66
2022/07/20 04:14:41;;;;;;;9.43;3.22;;;25.60;47.30;;;;;;6215030;23;20380;-67
2022/07/20 04:17:07;;;;;;;7.47;3.35;;;25.60;47.30;;;;;;6214316;23;20043;-66
2022/07/20 04:19:36;;;;;;;8.27;3.25;;;25.60;47.20;;;;;;6214147;23;19999;-67
2022/07/20 04:22:03;;;;;;;8.60;3.20;;;25.70;47.20;;;;;;6214643;23;20415;-67
2022/07/20 04:24:28;;;;;;;7.47;3.10;;;25.60;47.20;;;;;;6215276;23;20009;-66
2022/07/20 04:26:54;;;;;;;10.18;3.58;;;25.70;47.20;;;;;;6215587;23;20126;-67
2022/07/20 04:29:21;;;;;;;6.93;3.40;;;25.60;47.10;;;;;;6215516;23;20008;-66
2022/07/20 04:31:47;;;;;;;7.40;3.55;;;25.70;47.20;;;;;;6214567;23;20095;-66
2022/07/20 04:34:13;;;;;;;10.63;3.40;;;25.80;47.20;;;;;;6214004;23;20036;-66
2022/07/20 04:36:39;;;;;;;8.80;3.67;;;25.70;47.10;;;;;;6214454;23;20020;-66
2022/07/20 04:39:04;;;;;;;5.63;3.75;;;25.70;47.10;;;;;;6215138;23;20367;-67
2022/07/20 04:41:30;;;;;;;5.70;3.20;;;25.70;47.10;;;;;;6214986;23;20028;-66
2022/07/20 04:43:56;;;;;;;5.80;3.78;;;25.70;47.20;;;;;;6214848;23;20328;-67
2022/07/20 04:46:21;;;;;;;6.32;3.80;;;25.80;47.20;;;;;;6214665;23;20083;-67
2022/07/20 04:48:47;;;;;;;6.70;3.60;;;25.80;47.10;;;;;;6212360;23;19997;-66
2022/07/20 04:51:13;;;;;;;5.75;3.55;;;25.80;47.10;;;;;;6212205;23;20066;-67
2022/07/20 04:53:38;;;;;;;8.45;3.42;;;25.80;46.90;;;;;;6214217;23;20331;-67
2022/07/20 04:56:04;;;;;;;7.40;3.13;;;25.90;46.90;;;;;;6213957;23;20000;-66
2022/07/20 04:58:33;;;;;;;6.40;3.47;;;25.90;46.90;;;;;;6214120;23;19996;-66
2022/07/20 05:00:59;;;;;;;5.10;3.85;;;25.90;47.00;;;;;;6213238;23;20001;-67
2022/07/20 05:03:25;;;;;;;11.38;3.40;;;;;;;;;;6213643;23;20020;-66
2022/07/20 05:05:51;;;;;;;10.68;3.22;;;26.00;46.70;;;;;;6213510;23;20028;-67
2022/07/20 05:08:16;;;;;;;7.28;3.38;;;26.00;47.10;;;;;;6214056;23;20020;-68
2022/07/20 05:10:42;;;;;;;6.53;3.22;;;26.00;47.10;;;;;;6215345;23;20088;-66
2022/07/20 05:13:08;;;;;;;8.68;3.97;;;26.00;47.10;;;;;;6214405;23;20424;-66
2022/07/20 05:15:34;;;;;;;7.40;3.40;;;26.00;47.00;;;;;;6215230;23;20020;-67
2022/07/20 05:17:59;;;;;;;9.13;3.40;;;26.00;47.00;;;;;;6216419;23;20459;-66
2022/07/20 05:20:25;;;;;;;8.50;3.72;;;26.10;47.10;;;;;;6216474;23;20352;-66
2022/07/20 05:22:51;;;;;;;10.50;2.90;;;26.10;47.00;;;;;;6216658;23;20027;-66
2022/07/20 05:25:16;;;;;;;5.00;2.80;;;26.20;47.10;;;;;;6217334;23;20115;-67
2022/07/20 05:27:42;;;;;;;7.47;3.40;;;26.20;47.00;;;;;;6217357;23;20326;-66
2022/07/20 05:30:08;;;;;;;8.80;3.42;;;26.20;46.90;;;;;;6217108;23;20015;-67
2022/07/20 05:32:34;;;;;;;10.63;3.67;;;26.20;46.80;;;;;;6217609;23;20013;-67
2022/07/20 05:35:00;;;;;;;5.88;2.83;;;26.20;46.90;;;;;;6217226;23;20331;-67
2022/07/20 05:37:25;;;;;;;8.75;3.05;;;26.30;47.80;;;;;;6216465;23;20035;-66
2022/07/20 05:39:51;;;;;;;6.88;2.92;;;26.30;47.10;;;;;;6216951;23;20083;-67
2022/07/20 05:42:17;;;;;;;6.95;3.10;;;26.30;47.10;;;;;;6216543;23;20382;-67
2022/07/20 05:44:42;;;;;;;6.80;3.50;;;26.30;46.70;;;;;;6216903;23;20008;-66
2022/07/20 05:47:09;;;;;;;9.63;3.30;;;26.40;46.70;;;;;;6217907;23;19996;-67
2022/07/20 05:49:38;;;;;;;6.85;3.00;;;26.40;46.60;;;;;;6217500;23;20055;-66
2022/07/20 05:52:04;;;;;;;9.02;3.22;;;26.40;46.60;;;;;;6215987;23;20067;-66
2022/07/20 05:54:30;;;;;;;8.30;3.35;;;26.50;46.50;;;;;;6216691;23;20076;-67
2022/07/20 05:56:56;;;;;;;11.68;3.33;;;26.50;46.30;;;;;;6216454;23;20007;-67
2022/07/20 05:59:22;;;;;;;8.05;2.88;;;26.60;46.40;;;;;;6216813;23;20024;-67
2022/07/20 06:01:47;;;;;;;7.93;2.97;;;26.60;46.40;;;;;;6216696;23;20328;-67
2022/07/20 06:04:14;;;;;;;7.40;3.10;;;26.60;46.20;;;;;;6216333;23;19996;-67
2022/07/20 06:06:40;;;;;;;6.28;3.00;;;26.70;46.10;;;;;;6216572;23;20019;-66
2022/07/20 06:09:07;;;;;;;14.75;3.45;;;26.70;45.80;;;;;;6215697;23;20028;-66
2022/07/20 06:11:34;;;;;;;6.40;2.63;;;26.80;45.70;;;;;;6215430;23;20467;-67
2022/07/20 06:14:00;;;;;;;17.90;3.10;;;26.80;45.50;;;;;;6215936;23;19997;-68
2022/07/20 06:16:26;;;;;;;10.30;3.35;;;26.80;45.40;;;;;;6215855;23;20095;-67
2022/07/20 06:18:51;;;;;;;9.80;2.63;;;26.90;45.30;;;;;;6215715;23;20036;-67
2022/07/20 06:21:17;;;;;;;6.53;3.00;;;26.90;45.30;;;;;;6216101;23;20005;-66
2022/07/20 06:23:43;;;;;;;7.97;2.40;;;27.00;45.40;;;;;;6216606;23;20000;-66
2022/07/20 06:26:09;;;;;;;9.70;2.65;;;27.00;45.50;;;;;;6216040;23;20027;-71
2022/07/20 06:28:35;;;;;;;12.95;2.70;;;27.00;45.10;;;;;;6215655;23;20008;-68
2022/07/20 06:31:00;;;;;;;6.07;2.80;;;27.10;45.10;;;;;;6212888;23;20016;-68
2022/07/20 06:33:26;;;;;;;9.52;3.13;;;27.10;45.10;;;;;;6214728;23;19997;-67
2022/07/20 06:35:52;;;;;;;7.88;2.65;;;27.20;45.10;;;;;;6214916;23;20001;-71
2022/07/20 06:38:18;;;;;;;10.43;3.00;;;27.30;45.00;;;;;;6215308;23;20031;-70
2022/07/20 06:40:44;;;;;;;6.47;2.58;;;27.30;44.80;;;;;;6215467;23;20064;-68
2022/07/20 06:43:10;;;;;;;12.85;2.67;;;27.30;44.70;;;;;;6215590;23;20013;-69
2022/07/20 06:45:36;;;;;;;8.57;2.72;;;27.40;44.50;;;;;;6215328;23;20367;-69
2022/07/20 06:48:02;;;;;;;6.70;2.83;;;27.40;44.40;;;;;;6214806;23;20384;-68
2022/07/20 06:50:28;;;;;;;16.17;2.50;;;27.50;44.50;;;;;;6215315;23;20339;-69
2022/07/20 06:52:54;;;;;;;6.70;2.65;;;27.50;44.40;;;;;;6215856;23;19996;-69
2022/07/20 06:55:20;;;;;;;18.92;3.20;;;27.60;44.20;;;;;;6215220;23;20419;-76
2022/07/20 06:57:46;;;;;;;26.25;3.97;;;27.60;44.00;;;;;;6214665;23;20000;-70
2022/07/20 07:00:13;;;;;;;66.82;5.75;;;27.70;44.10;;;;;;6214286;23;20032;-72
2022/07/20 07:02:39;;;;;;;52.22;5.72;;;27.70;43.90;;;;;;6214484;23;20043;-72
2022/07/20 07:05:05;;;;;;;56.10;5.68;;;27.80;44.00;;;;;;6215308;23;20005;-73
2022/07/20 07:07:31;;;;;;;37.35;4.05;;;27.80;44.10;;;;;;6215315;23;20317;-74
2022/07/20 07:09:57;;;;;;;9.05;2.30;;;27.90;44.30;;;;;;6215460;23;20007;-74
2022/07/20 07:12:23;;;;;;;6.95;2.35;;;27.90;44.20;;;;;;6215505;23;20000;-74
2022/07/20 07:14:49;;;;;;;6.40;2.33;;;28.00;44.10;;;;;;6215562;23;20485;-72
2022/07/20 07:17:15;;;;;;;10.45;2.50;;;28.00;43.90;;;;;;6215518;23;20070;-72
2022/07/20 07:19:41;;;;;;;6.88;2.50;;;28.10;43.70;;;;;;6215856;23;20001;-72
2022/07/20 07:22:07;;;;;;;10.50;2.47;;;28.10;43.70;;;;;;6216121;23;20086;-71
2022/07/20 07:24:33;;;;;;;7.40;2.70;;;28.20;43.60;;;;;;6215882;23;20091;-71
2022/07/20 07:26:58;;;;;;;15.68;2.83;;;28.20;43.30;;;;;;6215839;23;20000;-72
2022/07/20 07:29:25;;;;;;;6.88;3.42;;;28.30;43.00;;;;;;6215660;23;20016;-73
2022/07/20 07:31:51;;;;;;;10.05;2.90;;;28.30;42.90;;;;;;6216070;23;20029;-73
2022/07/20 07:34:17;;;;;;;6.25;2.60;;;28.40;42.60;;;;;;6216430;23;20009;-73
2022/07/20 07:36:43;;;;;;;7.60;3.50;;;28.40;42.50;;;;;;6216024;23;20179;-73
2022/07/20 07:39:08;;;;;;;7.90;2.47;;;28.50;42.50;;;;;;6215944;23;20009;-73
2022/07/20 07:41:34;;;;;;;5.05;2.67;;;28.50;42.30;;;;;;6216065;23;20062;-73
2022/07/20 07:44:00;;;;;;;5.75;2.78;;;28.60;42.10;;;;;;6214831;23;20115;-73
2022/07/20 07:46:25;;;;;;;10.02;2.42;;;28.70;42.50;;;;;;6215170;23;20001;-73
2022/07/20 07:48:51;;;;;;;3.50;2.45;;;28.70;42.60;;;;;;6215656;23;20335;-73
2022/07/20 07:51:17;;;;;;;6.43;2.40;;;28.80;42.30;;;;;;6215808;23;20017;-74
2022/07/20 07:53:43;;;;;;;6.93;2.53;;;28.90;41.50;;;;;;6216223;23;20009;-74
2022/07/20 07:56:08;;;;;;;10.52;2.40;;;28.90;41.00;;;;;;6215760;23;20008;-73
2022/07/20 07:58:34;;;;;;;6.88;2.60;;;29.00;40.70;;;;;;6215030;23;20067;-73
2022/07/20 08:01:00;;;;;;;6.22;2.10;;;29.00;40.70;;;;;;6214831;23;20000;-72
2022/07/20 08:03:26;;;;;;;8.73;2.30;;;29.10;40.60;;;;;;6215227;23;20092;-73
2022/07/20 08:05:52;;;;;;;6.70;2.05;;;29.10;39.80;;;;;;6215445;23;20312;-72
2022/07/20 08:08:17;;;;;;;7.47;2.20;;;29.20;39.40;;;;;;6214977;23;20546;-73
2022/07/20 08:10:45;;;;;;;7.93;2.35;;;29.30;39.30;;;;;;6215027;23;20025;-72
2022/07/20 08:13:11;;;;;;;31.33;3.97;;;29.30;39.00;;;;;;6215904;23;19997;-71
2022/07/20 08:15:37;;;;;;;4.10;2.20;;;29.40;39.00;;;;;;6215863;23;20012;-72
2022/07/20 08:18:04;;;;;;;9.38;2.50;;;29.40;38.80;;;;;;6215438;23;20340;-72
2022/07/20 08:20:30;;;;;;;11.05;2.30;;;29.50;39.20;;;;;;6214918;23;20004;-75
2022/07/20 08:22:56;;;;;;;8.55;2.00;;;29.60;38.40;;;;;;6215747;23;20004;-78
2022/07/20 08:25:22;;;;;;;5.70;2.30;;;29.60;38.10;;;;;;6215625;23;20449;-75
2022/07/20 08:27:49;;;;;;;15.80;2.95;;;29.70;37.90;;;;;;6215022;23;20044;-74
2022/07/20 08:30:16;;;;;;;8.02;2.13;;;29.80;38.20;;;;;;6215369;23;20009;-75
2022/07/20 08:32:42;;;;;;;7.47;1.92;;;29.80;36.60;;;;;;6215390;23;20004;-73
2022/07/20 08:35:08;;;;;;;11.85;1.35;;;29.90;36.70;;;;;;6215901;23;20005;-73
2022/07/20 08:37:34;;;;;;;3.58;1.20;;;30.00;34.90;;;;;;6215689;23;20328;-76
2022/07/20 08:39:59;;;;;;;6.70;1.30;;;30.20;33.80;;;;;;6215740;23;20001;-74
2022/07/20 08:42:25;;;;;;;13.73;1.83;;;30.30;33.50;;;;;;6215611;23;20004;-74
2022/07/20 08:44:51;;;;;;;8.88;1.55;;;30.40;32.40;;;;;;6215355;23;20000;-74
2022/07/20 08:47:18;;;;;;;7.13;1.17;;;30.60;31.60;;;;;;6215279;23;20007;-75
2022/07/20 08:49:50;;;;;;;7.15;1.10;;;30.70;32.40;;;;;;6215090;23;20004;-73
2022/07/20 08:52:17;;;;;;;4.00;1.00;;;30.70;32.40;;;;;;6215692;23;20344;-70
2022/07/20 08:54:43;;;;;;;10.32;1.30;;;30.80;32.40;;;;;;6215280;23;20024;-69
2022/07/20 08:57:16;;;;;;;3.58;1.15;;;30.90;31.10;;;;;;6215529;23;20017;-69
2022/07/20 08:59:44;;;;;;;4.85;1.30;;;31.00;31.90;;;;;;6215344;23;20001;-70
2022/07/20 09:02:10;;;;;;;6.82;1.05;;;31.10;32.00;;;;;;6215114;23;20055;-70
2022/07/20 09:04:55;;;;;;;8.20;1.27;;;31.10;31.20;;;;;;6214760;23;20039;-69
2022/07/20 09:07:43;;;;;;;6.80;1.30;;;31.20;31.50;;;;;;6214193;23;20004;-70
2022/07/20 09:10:12;;;;;;;3.15;1.10;;;31.30;30.80;;;;;;6212922;23;20490;-71
2022/07/20 09:13:05;;;;;;;3.78;0.90;;;31.30;31.30;;;;;;6214389;23;20305;-70
2022/07/20 09:15:36;;;;;;;4.32;1.20;;;31.30;30.90;;;;;;6214123;23;20420;-71
2022/07/20 09:18:11;;;;;;;2.58;1.02;;;31.30;30.60;;;;;;6214342;23;20023;-72
2022/07/20 09:20:43;;;;;;;4.20;1.05;;;31.40;30.50;;;;;;6214303;23;20450;-70
2022/07/20 09:23:18;;;;;;;2.95;1.45;;;31.50;30.90;;;;;;6213230;23;20379;-70
2022/07/20 09:25:54;;;;;;;10.27;1.23;;;31.50;30.50;;;;;;6212934;23;20009;-70
2022/07/20 09:28:20;;;;;;;2.28;0.90;;;31.60;30.50;;;;;;6214326;23;20428;-70
2022/07/20 09:30:51;;;;;;;6.93;1.30;;;31.70;30.50;;;;;;6214276;23;20013;-70
2022/07/20 09:33:31;;;;;;;4.17;1.40;;;31.70;30.20;;;;;;6214886;23;19997;-69
2022/07/20 09:36:01;;;;;;;10.40;1.37;;;31.80;30.30;;;;;;6214550;23;20000;-70
2022/07/20 09:38:36;;;;;;;3.25;1.63;;;31.80;30.00;;;;;;6213820;23;20339;-69
2022/07/20 09:41:20;;;;;;;3.17;1.20;;;31.90;29.90;;;;;;6213343;23;20436;-71
2022/07/20 09:43:46;;;;;;;3.10;1.02;;;32.00;30.00;;;;;;6214354;23;20063;-69
2022/07/20 09:46:14;;;;;;;4.95;1.40;;;31.90;30.20;;;;;;6214021;23;20084;-69
2022/07/20 09:48:41;;;;;;;7.28;1.33;;;32.00;30.20;;;;;;6214466;23;20012;-70
2022/07/20 09:51:30;;;;;;;14.27;1.40;;;32.00;30.20;;;;;;6213982;23;20008;-68
2022/07/20 09:53:59;;;;;;;8.27;1.10;;;32.10;30.00;;;;;;6214156;23;20409;-70
2022/07/20 09:56:26;;;;;;;5.30;1.30;;;32.20;30.00;;;;;;6214042;23;20105;-70
2022/07/20 09:58:55;;;;;;;7.47;1.20;;;32.30;29.70;;;;;;6214140;23;19997;-70
2022/07/20 10:01:32;;;;;;;6.82;1.15;;;32.30;29.70;;;;;;6214551;23;20009;-70
2022/07/20 10:04:00;;;;;;;5.25;1.15;;;32.40;29.30;;;;;;6215752;23;19996;-71
2022/07/20 10:06:27;;;;;;;3.25;0.90;;;32.40;29.50;;;;;;6215973;23;20301;-68
2022/07/20 10:08:53;;;;;;;10.02;1.25;;;32.40;29.80;;;;;;6216015;23;20066;-69
2022/07/20 10:11:21;;;;;;;15.82;2.13;;;32.50;29.70;;;;;;6215658;23;20025;-69
2022/07/20 10:13:48;;;;;;;2.83;1.10;;;32.50;29.80;;;;;;6215945;23;20051;-70
2022/07/20 10:16:35;;;;;;;2.97;1.10;;;32.60;29.00;;;;;;6215760;23;20024;-69
2022/07/20 10:19:03;;;;;;;5.78;1.20;;;32.70;29.20;;;;;;6215703;23;20070;-68
2022/07/20 10:21:41;;;;;;;2.08;1.33;;;32.80;28.80;;;;;;6215366;23;20151;-69
2022/07/20 10:24:18;;;;;;;3.80;1.25;;;32.90;28.50;;;;;;6215689;23;20431;-70
2022/07/20 10:26:49;;;;;;;8.63;1.20;;;33.00;28.60;;;;;;6215996;23;20004;-69
2022/07/20 10:29:45;;;;;;;4.68;1.38;;;33.00;29.20;;;;;;6215498;23;20454;-70
2022/07/20 10:32:16;;;;;;;6.63;1.00;;;33.10;28.70;;;;;;6203549;23;20027;-70
2022/07/20 10:34:42;;;;;;;7.53;1.20;;;33.10;29.00;;;;;;6215679;23;20009;-70
2022/07/20 10:37:26;;;;;;;6.13;1.30;;;33.10;28.70;;;;;;6215323;23;20032;-70
2022/07/20 10:40:17;;;;;;;4.93;0.90;;;33.10;28.80;;;;;;6215992;23;20021;-70
2022/07/20 10:42:48;;;;;;;7.40;1.25;;;33.20;28.60;;;;;;6207343;23;20009;-70
2022/07/20 10:45:17;;;;;;;5.03;1.25;;;33.20;28.90;;;;;;6215642;23;20005;-69
2022/07/20 10:48:11;;;;;;;2.50;1.00;;;33.30;29.00;;;;;;6216031;23;20013;-69
2022/07/20 10:50:42;;;;;;;7.03;1.15;;;33.30;28.40;;;;;;6215453;23;20379;-70
2022/07/20 10:53:10;;;;;;;3.35;1.00;;;33.40;28.60;;;;;;6215446;23;20045;-70
2022/07/20 10:55:36;;;;;;;6.00;1.10;;;33.40;28.80;;;;;;6215396;23;20059;-69
2022/07/20 10:58:12;;;;;;;5.40;1.10;;;33.50;29.20;;;;;;6215495;23;20009;-69
2022/07/20 11:00:39;;;;;;;6.05;1.33;;;33.50;29.30;;;;;;6215874;23;20487;-68
2022/07/20 11:03:15;;;;;;;2.65;1.10;;;33.60;29.10;;;;;;6216353;23;20092;-69
2022/07/20 11:05:42;;;;;;;6.15;1.50;;;33.60;29.30;;;;;;6216099;23;20035;-69
2022/07/20 11:08:09;;;;;;;5.68;1.48;;;33.70;29.30;;;;;;6214979;23;20004;-69
2022/07/20 11:10:36;;;;;;;1.05;0.93;;;33.80;28.80;;;;;;6215248;23;20410;-69
2022/07/20 11:13:04;;;;;;;4.60;1.30;;;33.90;28.90;;;;;;6215157;23;20009;-69
2022/07/20 11:15:50;;;;;;;4.15;1.30;;;33.90;28.90;;;;;;6214747;23;20005;-69
2022/07/20 11:18:28;;;;;;;3.92;1.33;;;34.00;28.50;;;;;;6215122;23;20017;-69
2022/07/20 11:20:57;;;;;;;3.75;1.48;;;34.00;28.50;;;;;;6215163;23;20005;-71
2022/07/20 11:23:28;;;;;;;4.35;1.10;;;34.10;28.60;;;;;;6214831;23;20075;-69
2022/07/20 11:25:59;;;;;;;5.40;1.35;;;34.00;28.50;;;;;;6213402;23;20001;-69
2022/07/20 11:28:37;;;;;;;6.05;1.45;;;34.10;28.60;;;;;;6211394;23;20088;-69
2022/07/20 11:31:05;;;;;;;3.70;1.40;;;34.10;28.40;;;;;;6211956;23;20055;-69
2022/07/20 11:33:58;;;;;;;2.92;1.20;;;34.20;28.50;;;;;;6214846;23;20008;-69
2022/07/20 11:36:27;;;;;;;2.47;1.20;;;34.20;28.10;;;;;;6212883;23;20009;-69
2022/07/20 11:38:55;;;;;;;5.45;1.35;;;34.20;28.40;;;;;;6214706;23;19996;-70
2022/07/20 11:41:34;;;;;;;4.40;1.27;;;34.20;28.40;;;;;;6215178;23;20039;-69
2022/07/20 11:44:01;;;;;;;3.80;1.20;;;34.30;28.50;;;;;;6215441;23;20001;-69
2022/07/20 11:46:29;;;;;;;3.80;1.30;;;34.40;28.90;;;;;;6214725;23;20001;-70
2022/07/20 11:49:00;;;;;;;2.42;1.38;;;34.30;28.40;;;;;;6213860;23;20079;-70
2022/07/20 11:51:31;;;;;;;3.00;1.50;;;34.40;28.50;;;;;;6213408;23;20013;-70
2022/07/20 11:53:57;;;;;;;6.25;1.27;;;34.50;28.10;;;;;;6213661;23;20072;-68
2022/07/20 11:56:25;;;;;;;2.90;1.30;;;34.50;28.10;;;;;;6210911;23;20486;-68
2022/07/20 11:58:53;;;;;;;4.07;1.40;;;34.50;28.50;;;;;;6213352;23;20028;-69
2022/07/20 12:01:23;;;;;;;3.92;1.48;;;34.60;28.60;;;;;;6213692;23;20359;-67
2022/07/20 12:03:57;;;;;;;11.07;1.40;;;34.60;28.20;;;;;;6212582;23;20032;-69
2022/07/20 12:06:26;;;;;;;3.85;1.30;;;34.60;28.30;;;;;;6185666;23;20035;-68
2022/07/20 12:09:11;;;;;;;2.25;1.23;;;34.70;27.70;;;;;;6213816;23;20000;-67
2022/07/20 12:11:57;;;;;;;4.80;1.58;;;34.70;27.50;;;;;;6213911;23;20040;-69
2022/07/20 12:14:37;;;;;;;4.63;1.20;;;34.70;28.00;;;;;;6214194;23;20035;-69
2022/07/20 12:17:19;;;;;;;5.40;1.05;;;34.80;28.40;;;;;;6212922;23;20021;-70
2022/07/20 12:19:47;;;;;;;4.78;1.25;;;34.80;28.00;;;;;;6212589;23;20001;-70
2022/07/20 12:22:30;;;;;;;1.45;1.20;;;34.80;28.30;;;;;;6209856;23;20001;-70
2022/07/20 12:25:08;;;;;;;5.85;1.30;;;34.80;28.10;;;;;;6209595;23;20034;-70
2022/07/20 12:27:36;;;;;;;8.90;1.70;;;34.90;27.80;;;;;;6212503;23;20028;-70
2022/07/20 12:30:30;;;;;;;7.43;1.73;;;34.90;28.00;;;;;;6214212;23;20019;-70
2022/07/20 12:33:13;;;;;;;9.18;3.40;;;35.00;27.60;;;;;;6205975;23;20088;-69
2022/07/20 12:35:43;;;;;;;9.68;4.07;;;34.90;28.90;;;;;;6214145;23;20047;-69
2022/07/20 12:38:09;;;;;;;6.50;4.15;;;34.90;29.40;;;;;;6213787;23;20462;-66
2022/07/20 12:40:37;;;;;;;6.95;4.30;;;35.00;29.30;;;;;;6214030;23;20059;-68
2022/07/20 12:43:06;;;;;;;7.05;3.67;;;35.00;29.40;;;;;;6214851;23;20446;-69
2022/07/20 12:45:31;;;;;;;8.30;4.03;;;35.00;29.60;;;;;;6214996;23;20001;-68
2022/07/20 12:47:57;;;;;;;9.68;3.83;;;35.00;29.80;;;;;;6215617;23;20089;-68
2022/07/20 12:50:23;;;;;;;8.38;3.85;;;35.10;30.00;;;;;;6215426;23;20078;-67